createdAt,value
2018-06-01T00:00:38.879Z,64.60
2018-06-01T00:04:41.403Z,65.20
2018-06-01T00:08:44.708Z,66.80
2018-06-01T00:12:47.986Z,67.30
2018-06-01T00:16:50.524Z,67.50
2018-06-01T00:20:53.067Z,66.40
2018-06-01T00:24:56.367Z,65.90
2018-06-01T00:28:58.908Z,65.80
2018-06-01T00:33:01.427Z,67.20
2018-06-01T00:37:03.958Z,66.20
2018-06-01T00:41:06.486Z,66.50
2018-06-01T00:45:09.031Z,67.20
2018-06-01T00:49:11.594Z,65.90
2018-06-01T00:53:14.875Z,66.20
2018-06-01T00:57:17.411Z,66.20
2018-06-01T01:01:19.950Z,66.90
2018-06-01T01:05:23.251Z,65.80
2018-06-01T01:09:25.782Z,65.70
2018-06-01T01:13:28.295Z,68.70
2018-06-01T01:17:30.843Z,66.60
2018-06-01T01:21:34.144Z,66.80
2018-06-01T01:25:36.710Z,66.80
2018-06-01T01:29:40.028Z,66.20
2018-06-01T01:33:42.540Z,66.40
2018-06-01T01:37:45.072Z,66.50
2018-06-01T01:41:48.375Z,66.80
2018-06-01T01:45:50.938Z,66.80
2018-06-01T01:49:54.267Z,67.60
2018-06-01T01:53:56.809Z,68.00
2018-06-01T01:57:59.347Z,67.00
2018-06-01T02:02:02.670Z,67.60
2018-06-01T02:06:06.033Z,67.60
2018-06-01T02:10:08.569Z,67.60
2018-06-01T02:14:11.876Z,67.20
2018-06-01T02:18:14.392Z,67.20
2018-06-01T02:22:16.924Z,67.20
2018-06-01T02:26:20.395Z,67.00
2018-06-01T02:30:23.709Z,67.30
2018-06-01T02:34:26.252Z,67.10
2018-06-01T02:38:28.790Z,66.30
2018-06-01T02:42:32.091Z,67.10
2018-06-01T02:46:35.390Z,68.20
2018-06-01T02:50:38.699Z,67.70
2018-06-01T02:54:41.241Z,67.60
2018-06-01T02:58:43.761Z,67.80
2018-06-01T03:02:47.060Z,67.20
2018-06-01T03:07:01.391Z,67.10
2018-06-01T03:11:03.939Z,68.00
2018-06-01T03:15:06.484Z,69.10
2018-06-01T03:19:09.771Z,68.80
2018-06-01T03:23:13.095Z,69.00
2018-06-01T03:27:16.493Z,68.90
2018-06-01T03:31:19.158Z,68.80
2018-06-01T03:35:21.716Z,68.20
2018-06-01T03:39:24.235Z,69.70
2018-06-01T03:43:26.771Z,68.70
2018-06-01T03:47:29.307Z,69.40
2018-06-01T03:51:31.839Z,69.80
2018-06-01T03:55:34.386Z,68.60
2018-06-01T03:59:37.712Z,68.50
2018-06-01T04:03:41.023Z,68.10
2018-06-01T04:07:43.559Z,68.10
2018-06-01T04:11:46.105Z,68.40
2018-06-01T04:15:48.659Z,68.20
2018-06-01T04:19:51.965Z,70.10
2018-06-01T04:23:54.507Z,70.20
2018-06-01T04:27:57.060Z,69.10
2018-06-01T04:31:59.610Z,68.60
2018-06-01T04:36:02.930Z,67.90
2018-06-01T04:40:07.232Z,68.10
2018-06-01T04:44:09.756Z,68.20
2018-06-01T04:48:12.308Z,68.30
2018-06-01T04:52:14.859Z,68.90
2018-06-01T04:56:17.474Z,68.90
2018-06-01T05:00:20.023Z,68.30
2018-06-01T05:04:22.570Z,68.60
2018-06-01T05:08:25.124Z,68.30
2018-06-01T05:12:27.691Z,69.90
2018-06-01T05:16:30.245Z,68.50
2018-06-01T05:20:32.804Z,68.80
2018-06-01T05:24:36.096Z,68.40
2018-06-01T05:28:39.404Z,68.90
2018-06-01T05:32:41.942Z,69.00
2018-06-01T05:36:44.480Z,67.90
2018-06-01T05:40:47.785Z,69.20
2018-06-01T05:44:51.070Z,68.60
2018-06-01T05:48:53.600Z,68.70
2018-06-01T05:52:56.142Z,68.10
2018-06-01T05:56:59.447Z,71.50
2018-06-01T06:01:02.755Z,69.30
2018-06-01T06:05:06.055Z,69.80
2018-06-01T06:09:09.350Z,71.00
2018-06-01T06:13:11.908Z,70.70
2018-06-01T06:17:14.439Z,69.10
2018-06-01T06:21:17.744Z,69.70
2018-06-01T06:25:21.020Z,70.00
2018-06-01T06:29:24.352Z,73.70
2018-06-01T06:33:27.651Z,68.50
2018-06-01T06:37:30.970Z,68.50
2018-06-01T06:41:33.519Z,68.60
2018-06-01T06:45:36.075Z,69.90
2018-06-01T06:49:38.611Z,70.00
2018-06-01T06:53:41.920Z,70.70
2018-06-01T06:57:44.468Z,70.40
2018-06-01T07:01:47.017Z,72.90
2018-06-01T07:05:49.572Z,74.00
2018-06-01T07:09:52.099Z,69.10
2018-06-01T07:13:54.664Z,71.70
2018-06-01T07:17:57.208Z,68.00
2018-06-01T07:22:00.519Z,73.00
2018-06-01T07:26:03.823Z,74.90
2018-06-01T07:30:07.108Z,71.10
2018-06-01T07:34:10.535Z,72.00
2018-06-01T07:38:13.839Z,69.60
2018-06-01T07:42:17.136Z,73.20
2018-06-01T07:46:20.435Z,68.70
2018-06-01T07:50:23.734Z,68.40
2018-06-01T07:54:27.045Z,68.40
2018-06-01T07:58:29.596Z,68.30
2018-06-01T08:02:32.145Z,68.50
2018-06-01T08:06:34.679Z,69.20
2018-06-01T08:10:37.206Z,69.00
2018-06-01T08:14:39.753Z,71.50
2018-06-01T08:18:43.084Z,70.00
2018-06-01T08:22:45.617Z,70.90
2018-06-01T08:26:48.187Z,69.40
2018-06-01T08:30:50.712Z,70.10
2018-06-01T08:34:53.283Z,69.50
2018-06-01T08:38:55.839Z,68.60
2018-06-01T08:42:58.374Z,69.10
2018-06-01T08:47:01.680Z,68.60
2018-06-01T08:51:04.971Z,69.90
2018-06-01T08:55:07.507Z,69.80
2018-06-01T08:59:10.091Z,69.80
2018-06-01T09:03:13.367Z,70.00
2018-06-01T09:07:16.669Z,70.60
2018-06-01T09:11:19.967Z,69.50
2018-06-01T09:15:22.483Z,69.90
2018-06-01T09:19:25.020Z,71.80
2018-06-01T09:23:27.554Z,69.70
2018-06-01T09:27:30.091Z,69.20
2018-06-01T09:31:32.630Z,70.70
2018-06-01T09:35:35.156Z,71.70
2018-06-01T09:39:37.691Z,69.70
2018-06-01T09:43:40.223Z,70.90
2018-06-01T09:47:42.760Z,69.10
2018-06-01T09:51:45.296Z,70.20
2018-06-01T09:55:47.807Z,71.60
2018-06-01T09:59:51.140Z,70.30
2018-06-01T10:03:53.693Z,70.10
2018-06-01T10:07:56.206Z,69.30
2018-06-01T10:11:58.748Z,69.30
2018-06-01T10:16:02.036Z,71.20
2018-06-01T10:20:04.569Z,71.20
2018-06-01T10:24:07.108Z,70.00
2018-06-01T10:28:09.657Z,69.10
2018-06-01T10:32:12.192Z,70.00
2018-06-01T10:36:15.474Z,69.00
2018-06-01T10:40:18.007Z,69.10
2018-06-01T10:44:20.539Z,69.00
2018-06-01T10:48:23.083Z,69.10
2018-06-01T10:52:25.619Z,68.70
2018-06-01T10:56:28.134Z,68.70
2018-06-01T11:00:30.691Z,68.40
2018-06-01T11:04:33.227Z,68.70
2018-06-01T11:08:35.797Z,68.10
2018-06-01T11:12:38.350Z,68.30
2018-06-01T11:16:40.869Z,68.40
2018-06-01T11:20:43.422Z,68.50
2018-06-01T11:24:45.964Z,69.70
2018-06-01T11:28:48.526Z,70.60
2018-06-01T11:32:51.092Z,71.00
2018-06-01T11:36:54.385Z,70.50
2018-06-01T11:40:57.688Z,70.90
2018-06-01T11:45:01.000Z,72.10
2018-06-01T11:49:04.311Z,72.00
2018-06-01T11:53:06.847Z,72.00
2018-06-01T11:57:09.391Z,69.70
2018-06-01T12:01:11.912Z,72.60
2018-06-01T12:05:14.454Z,71.70
2018-06-01T12:09:16.999Z,71.30
2018-06-01T12:13:19.533Z,69.50
2018-06-01T12:17:22.081Z,69.90
2018-06-01T12:21:24.594Z,69.80
2018-06-01T12:25:27.123Z,69.50
2018-06-01T12:29:29.718Z,71.80
2018-06-01T12:33:32.219Z,69.40
2018-06-01T12:37:34.765Z,70.20
2018-06-01T12:41:37.276Z,70.40
2018-06-01T12:45:39.812Z,71.10
2018-06-01T12:49:42.344Z,71.80
2018-06-01T12:53:44.886Z,70.60
2018-06-01T12:57:47.427Z,72.40
2018-06-01T13:01:49.964Z,70.60
2018-06-01T13:05:52.494Z,72.50
2018-06-01T13:09:55.037Z,71.00
2018-06-01T13:13:57.587Z,70.70
2018-06-01T13:18:00.889Z,71.60
2018-06-01T13:22:04.168Z,73.10
2018-06-01T13:26:06.694Z,73.90
2018-06-01T13:30:09.219Z,72.60
2018-06-01T13:34:11.743Z,76.00
2018-06-01T13:38:15.047Z,71.60
2018-06-01T13:42:18.331Z,70.90
2018-06-01T13:46:20.878Z,70.90
2018-06-01T13:50:23.416Z,70.70
2018-06-01T13:54:26.720Z,71.20
2018-06-01T13:58:30.016Z,71.10
2018-06-01T14:02:33.291Z,73.20
2018-06-01T14:06:35.828Z,73.60
2018-06-01T14:10:38.358Z,71.70
2018-06-01T14:14:40.893Z,72.30
2018-06-01T14:18:43.425Z,71.20
2018-06-01T14:22:45.939Z,71.60
2018-06-01T14:26:49.243Z,71.10
2018-06-01T14:30:52.538Z,71.50
2018-06-01T14:34:55.109Z,71.60
2018-06-01T14:38:57.631Z,71.40
2018-06-01T14:43:00.924Z,71.80
2018-06-01T14:47:04.288Z,71.00
2018-06-01T14:51:07.531Z,71.00
2018-06-01T14:55:10.829Z,70.70
2018-06-01T14:59:14.145Z,70.90
2018-06-01T15:03:16.683Z,70.90
2018-06-01T15:07:19.192Z,71.70
2018-06-01T15:11:21.724Z,72.00
2018-06-01T15:15:24.255Z,71.00
2018-06-01T15:19:26.786Z,71.00
2018-06-01T15:23:29.324Z,71.10
2018-06-01T15:27:31.854Z,70.70
2018-06-01T15:31:34.391Z,70.90
2018-06-01T15:35:36.935Z,71.70
2018-06-01T15:39:39.507Z,70.70
2018-06-01T15:43:42.044Z,70.70
2018-06-01T15:47:44.577Z,70.90
2018-06-01T15:56:04.246Z,71.00
2018-06-01T16:00:06.778Z,71.70
2018-06-01T16:04:09.320Z,71.50
2018-06-01T16:08:11.895Z,72.20
2018-06-01T16:12:14.411Z,72.70
2018-06-01T16:16:17.716Z,73.30
2018-06-01T16:20:21.012Z,74.20
2018-06-01T16:24:24.306Z,73.90
2018-06-01T16:28:27.599Z,73.90
2018-06-01T16:32:30.130Z,74.00
2018-06-01T16:36:32.667Z,73.60
2018-06-01T16:40:35.190Z,73.60
2018-06-01T16:44:37.718Z,72.70
2018-06-01T16:48:40.244Z,72.50
2018-06-01T16:52:43.529Z,71.80
2018-06-01T16:56:46.060Z,71.80
2018-06-01T17:00:48.600Z,71.70
2018-06-01T17:04:51.908Z,71.60
2018-06-01T17:08:55.216Z,72.30
2018-06-01T17:12:58.498Z,72.40
2018-06-01T17:17:01.022Z,73.20
2018-06-01T17:21:03.550Z,71.40
2018-06-01T17:25:06.093Z,71.10
2018-06-01T17:29:08.647Z,71.00
2018-06-01T17:33:11.938Z,71.80
2018-06-01T17:37:14.483Z,71.80
2018-06-01T17:41:17.025Z,72.20
2018-06-01T17:45:20.354Z,72.20
2018-06-01T17:49:22.900Z,72.30
2018-06-01T17:53:25.441Z,72.70
2018-06-01T17:57:27.998Z,72.70
2018-06-01T18:01:30.556Z,72.00
2018-06-01T18:05:33.236Z,72.40
2018-06-01T18:09:35.784Z,71.80
2018-06-01T18:13:38.298Z,71.50
2018-06-01T18:17:40.838Z,72.90
2018-06-01T18:21:43.376Z,72.30
2018-06-01T18:25:46.691Z,71.60
2018-06-01T18:29:49.226Z,71.70
2018-06-01T18:33:51.752Z,71.90
2018-06-01T18:37:54.287Z,72.10
2018-06-01T18:41:56.820Z,73.10
2018-06-01T18:45:59.357Z,73.50
2018-06-01T18:50:01.890Z,73.70
2018-06-01T18:54:04.422Z,72.40
2018-06-01T18:58:06.981Z,72.40
2018-06-01T19:02:10.289Z,72.80
2018-06-01T19:06:13.588Z,73.40
2018-06-01T19:10:16.892Z,72.40
2018-06-01T19:14:20.186Z,72.00
2018-06-01T19:18:23.593Z,72.60
2018-06-01T19:22:27.864Z,72.50
2018-06-01T19:26:30.434Z,72.50
2018-06-01T19:30:32.978Z,72.80
2018-06-01T19:34:35.547Z,72.90
2018-06-01T19:38:38.054Z,72.20
2018-06-01T19:42:40.579Z,72.50
2018-06-01T19:46:43.127Z,72.90
2018-06-01T19:50:46.427Z,74.10
2018-06-01T19:54:48.964Z,74.20
2018-06-01T19:58:51.480Z,73.40
2018-06-01T20:02:54.044Z,73.20
2018-06-01T20:06:56.617Z,73.60
2018-06-01T20:10:59.169Z,73.00
2018-06-01T20:15:01.716Z,73.00
2018-06-01T20:19:04.236Z,73.20
2018-06-01T20:23:07.547Z,72.40
2018-06-01T20:27:10.084Z,72.40
2018-06-01T20:31:12.630Z,72.50
2018-06-01T20:35:15.183Z,72.80
2018-06-01T20:39:18.467Z,73.30
2018-06-01T20:43:21.013Z,73.30
2018-06-01T20:47:23.558Z,73.60
2018-06-01T20:51:26.907Z,73.30
2018-06-01T20:55:29.479Z,73.20
2018-06-01T20:59:33.152Z,73.70
2018-06-01T21:03:36.534Z,73.90
2018-06-01T21:07:39.133Z,73.90
2018-06-01T21:11:41.748Z,74.30
2018-06-01T21:15:44.345Z,73.20
2018-06-01T21:19:48.481Z,73.20
2018-06-01T21:23:51.094Z,73.20
2018-06-01T21:27:53.854Z,75.20
2018-06-01T21:31:56.459Z,75.10
2018-06-01T21:35:59.090Z,74.00
2018-06-01T21:40:02.401Z,74.00
2018-06-01T21:44:05.703Z,74.00
2018-06-01T21:48:09.020Z,74.50
2018-06-01T21:52:11.566Z,74.60
2018-06-01T21:56:14.116Z,74.10
2018-06-01T22:00:16.644Z,76.30
2018-06-01T22:04:19.203Z,76.70
2018-06-01T22:08:21.740Z,75.60
2018-06-01T22:12:25.052Z,74.80
2018-06-01T22:16:27.591Z,74.90
2018-06-01T22:20:30.131Z,74.20
2018-06-01T22:24:32.657Z,75.40
2018-06-01T22:28:35.203Z,75.00
2018-06-01T22:32:37.757Z,75.40
2018-06-01T22:36:41.059Z,74.60
2018-06-01T22:40:44.367Z,75.00
2018-06-01T22:44:47.650Z,75.20
2018-06-01T22:48:50.190Z,75.30
2018-06-01T22:52:52.744Z,74.90
2018-06-01T22:56:55.283Z,75.10
2018-06-01T23:00:57.823Z,75.00
2018-06-01T23:05:00.338Z,80.10
2018-06-01T23:09:02.884Z,78.40
2018-06-01T23:13:05.467Z,76.20
2018-06-01T23:17:08.779Z,77.60
2018-06-01T23:21:11.342Z,77.80
2018-06-01T23:25:13.865Z,78.20
2018-06-01T23:29:16.419Z,75.90
2018-06-01T23:33:19.750Z,76.30
2018-06-01T23:37:22.327Z,76.30
2018-06-01T23:41:24.872Z,76.20
2018-06-01T23:45:27.392Z,75.80
2018-06-01T23:49:29.926Z,76.60
2018-06-01T23:53:32.468Z,75.90
2018-06-01T23:57:35.004Z,75.80
